createdAt,value
2022-10-02T00:02:02.263Z,8.94
2022-10-02T00:04:35.893Z,8.96
2022-10-02T00:07:07.805Z,8.84
2022-10-02T00:09:42.406Z,8.90
2022-10-02T00:12:13.227Z,8.78
2022-10-02T00:14:44.046Z,8.98
2022-10-02T00:17:19.886Z,8.96
2022-10-02T00:19:48.214Z,8.93
2022-10-02T00:22:30.929Z,8.94
2022-10-02T00:25:05.271Z,8.94
2022-10-02T00:27:53.464Z,8.77
2022-10-02T00:30:21.912Z,8.69
2022-10-02T00:33:05.299Z,8.91
2022-10-02T00:36:01.755Z,8.88
2022-10-02T00:38:46.100Z,8.93
2022-10-02T00:41:45.382Z,8.91
2022-10-02T00:44:35.804Z,8.90
2022-10-02T00:47:11.007Z,8.94
2022-10-02T00:49:57.403Z,8.90
2022-10-02T00:52:46.154Z,8.76
2022-10-02T00:55:41.143Z,8.87
2022-10-02T00:58:28.920Z,8.86
2022-10-02T01:01:04.769Z,8.83
2022-10-02T01:03:39.232Z,8.88
2022-10-02T01:06:09.132Z,8.79
2022-10-02T01:08:38.179Z,8.85
2022-10-02T01:11:09.136Z,8.84
2022-10-02T01:13:37.691Z,8.82
2022-10-02T01:16:11.751Z,8.81
2022-10-02T01:18:40.378Z,8.81
2022-10-02T01:21:14.799Z,8.82
2022-10-02T01:23:50.118Z,8.39
2022-10-02T01:26:20.318Z,8.83
2022-10-02T01:28:49.427Z,8.83
2022-10-02T01:31:19.260Z,8.81
2022-10-02T01:33:49.977Z,8.83
2022-10-02T01:36:19.256Z,8.83
2022-10-02T01:38:49.919Z,8.78
2022-10-02T01:41:19.720Z,8.83
2022-10-02T01:43:50.748Z,8.81
2022-10-02T01:46:31.587Z,8.55
2022-10-02T01:49:13.979Z,8.82
2022-10-02T01:52:08.784Z,8.81
2022-10-02T01:54:50.454Z,8.83
2022-10-02T01:57:31.792Z,8.85
2022-10-02T02:00:09.256Z,8.85
2022-10-02T02:02:49.187Z,8.88
2022-10-02T02:05:27.955Z,8.89
2022-10-02T02:08:08.156Z,8.91
2022-10-02T02:10:45.010Z,8.91
2022-10-02T02:13:21.669Z,8.96
2022-10-02T02:16:00.365Z,8.88
2022-10-02T02:18:34.870Z,8.83
2022-10-02T02:21:09.623Z,8.94
2022-10-02T02:23:40.547Z,8.98
2022-10-02T02:26:13.526Z,8.99
2022-10-02T02:28:49.505Z,9.05
2022-10-02T02:31:22.657Z,9.06
2022-10-02T02:33:58.360Z,9.07
2022-10-02T02:36:32.431Z,9.13
2022-10-02T02:39:06.751Z,9.14
2022-10-02T02:41:41.786Z,9.01
2022-10-02T02:44:20.239Z,9.25
2022-10-02T02:47:06.576Z,9.27
2022-10-02T02:49:52.484Z,9.25
2022-10-02T02:52:24.718Z,9.27
2022-10-02T02:54:57.679Z,9.33
2022-10-02T02:57:32.182Z,9.32
2022-10-02T03:00:04.262Z,9.34
2022-10-02T03:02:32.856Z,9.33
2022-10-02T03:05:01.327Z,9.31
2022-10-02T03:07:29.839Z,9.30
2022-10-02T03:10:07.532Z,9.30
2022-10-02T03:12:50.666Z,9.27
2022-10-02T03:15:30.099Z,9.28
2022-10-02T03:18:20.675Z,9.25
2022-10-02T03:21:01.373Z,9.27
2022-10-02T03:23:35.843Z,9.14
2022-10-02T03:26:09.883Z,8.66
2022-10-02T03:28:56.862Z,9.30
2022-10-02T03:31:31.141Z,9.37
2022-10-02T03:34:01.971Z,9.32
2022-10-02T03:36:31.410Z,9.36
2022-10-02T03:39:24.080Z,9.37
2022-10-02T03:41:52.397Z,9.36
2022-10-02T03:44:20.814Z,9.41
2022-10-02T03:46:50.645Z,9.37
2022-10-02T03:49:19.043Z,9.46
2022-10-02T03:51:49.089Z,9.49
2022-10-02T03:54:19.547Z,9.52
2022-10-02T03:56:55.836Z,9.52
2022-10-02T03:59:34.966Z,9.30
2022-10-02T04:02:10.501Z,9.55
2022-10-02T04:04:47.608Z,9.34
2022-10-02T04:07:21.155Z,9.61
2022-10-02T04:09:56.330Z,8.99
2022-10-02T04:12:31.419Z,9.59
2022-10-02T04:15:05.278Z,9.60
2022-10-02T04:17:44.388Z,9.66
2022-10-02T04:20:18.470Z,9.62
2022-10-02T04:22:52.143Z,9.62
2022-10-02T04:25:21.348Z,9.50
2022-10-02T04:27:54.189Z,9.58
2022-10-02T04:30:23.522Z,9.60
2022-10-02T04:32:53.573Z,9.61
2022-10-02T04:35:30.173Z,9.63
2022-10-02T04:38:16.822Z,9.63
2022-10-02T04:40:57.004Z,9.64
2022-10-02T04:43:42.306Z,9.67
2022-10-02T04:46:24.522Z,9.67
2022-10-02T04:49:27.936Z,9.70
2022-10-02T04:52:08.363Z,9.70
2022-10-02T04:55:04.387Z,9.71
2022-10-02T04:57:49.447Z,9.74
2022-10-02T05:00:21.502Z,9.74
2022-10-02T05:03:08.247Z,9.77
2022-10-02T05:06:02.767Z,9.78
2022-10-02T05:08:58.811Z,9.77
2022-10-02T05:11:42.038Z,9.79
2022-10-02T05:14:28.126Z,9.80
2022-10-02T05:17:08.753Z,9.88
2022-10-02T05:19:52.216Z,9.89
2022-10-02T05:22:46.422Z,9.88
2022-10-02T05:25:46.241Z,9.87
2022-10-02T05:28:40.511Z,9.87
2022-10-02T05:31:15.602Z,9.75
2022-10-02T05:34:00.854Z,9.83
2022-10-02T05:36:53.150Z,9.87
2022-10-02T05:39:28.409Z,9.88
2022-10-02T05:42:05.586Z,9.90
2022-10-02T05:44:39.480Z,9.89
2022-10-02T05:47:14.025Z,9.92
2022-10-02T05:49:49.475Z,9.97
2022-10-02T05:52:21.932Z,9.98
2022-10-02T05:54:58.137Z,9.98
2022-10-02T05:57:32.350Z,9.99
2022-10-02T06:00:09.734Z,9.77
2022-10-02T06:02:46.711Z,10.01
2022-10-02T06:05:20.712Z,9.98
2022-10-02T06:07:53.611Z,10.07
2022-10-02T06:10:29.130Z,10.08
2022-10-02T06:13:01.439Z,9.94
2022-10-02T06:15:34.411Z,9.99
2022-10-02T06:18:08.558Z,10.21
2022-10-02T06:20:41.971Z,10.21
2022-10-02T06:23:16.412Z,10.25
2022-10-02T06:25:50.058Z,10.19
2022-10-02T06:28:24.168Z,10.34
2022-10-02T06:31:00.836Z,10.33
2022-10-02T06:33:33.481Z,10.31
2022-10-02T06:36:30.261Z,10.16
2022-10-02T06:39:26.734Z,10.36
2022-10-02T06:42:09.966Z,10.33
2022-10-02T06:44:47.842Z,10.40
2022-10-02T06:47:35.078Z,10.39
2022-10-02T06:50:38.730Z,10.46
2022-10-02T06:53:20.078Z,10.46
2022-10-02T06:55:59.655Z,10.47
2022-10-02T06:58:43.822Z,10.51
2022-10-02T07:01:31.678Z,10.45
2022-10-02T07:04:18.178Z,10.49
2022-10-02T07:07:07.736Z,10.36
2022-10-02T07:09:54.239Z,10.52
2022-10-02T07:12:36.488Z,10.57
2022-10-02T07:15:25.293Z,10.57
2022-10-02T07:18:03.998Z,10.63
2022-10-02T07:20:44.696Z,10.63
2022-10-02T07:24:02.197Z,10.66
2022-10-02T07:26:50.914Z,10.72
2022-10-02T07:29:32.678Z,10.77
2022-10-02T07:32:36.686Z,10.87
2022-10-02T07:35:17.505Z,10.78
2022-10-02T07:37:59.843Z,10.93
2022-10-02T07:40:36.602Z,10.89
2022-10-02T07:43:24.390Z,10.89
2022-10-02T07:46:00.479Z,10.88
2022-10-02T07:48:42.846Z,11.01
2022-10-02T07:51:40.075Z,10.98
2022-10-02T07:54:40.688Z,10.93
2022-10-02T07:57:26.589Z,11.03
2022-10-02T07:59:59.466Z,11.01
2022-10-02T08:02:34.416Z,11.05
2022-10-02T08:05:07.713Z,11.07
2022-10-02T08:07:36.947Z,11.09
2022-10-02T08:10:11.603Z,11.05
2022-10-02T08:12:45.486Z,11.13
2022-10-02T08:15:17.937Z,11.21
2022-10-02T08:17:51.386Z,11.24
2022-10-02T08:20:29.483Z,11.28
2022-10-02T08:23:05.260Z,11.32
2022-10-02T08:25:39.133Z,11.38
2022-10-02T08:28:13.842Z,11.25
2022-10-02T08:30:42.320Z,11.48
2022-10-02T08:33:17.670Z,11.57
2022-10-02T08:35:58.332Z,11.58
2022-10-02T08:38:38.780Z,11.65
2022-10-02T08:42:01.386Z,11.67
2022-10-02T08:45:15.480Z,11.74
2022-10-02T08:48:15.659Z,11.75
2022-10-02T08:51:17.903Z,11.80
2022-10-02T08:54:42.158Z,11.68
2022-10-02T08:57:46.080Z,11.73
2022-10-02T09:00:22.364Z,11.77
2022-10-02T09:03:47.207Z,11.52
2022-10-02T09:06:45.610Z,11.84
2022-10-02T09:09:49.896Z,11.85
2022-10-02T09:12:46.191Z,11.81
2022-10-02T09:15:17.907Z,11.78
2022-10-02T09:17:49.799Z,11.79
2022-10-02T09:20:44.054Z,11.75
2022-10-02T09:23:26.496Z,11.56
2022-10-02T09:25:59.339Z,11.67
2022-10-02T09:29:15.147Z,11.64
2022-10-02T09:32:21.952Z,11.72
2022-10-02T09:35:18.402Z,11.61
2022-10-02T09:38:30.242Z,11.57
2022-10-02T09:41:38.604Z,11.50
2022-10-02T09:45:00.975Z,11.58
2022-10-02T09:48:17.110Z,11.52
2022-10-02T09:51:10.530Z,11.51
2022-10-02T09:54:21.732Z,11.59
2022-10-02T09:57:18.863Z,11.71
2022-10-02T10:00:05.536Z,11.76
2022-10-02T10:03:12.022Z,11.85
2022-10-02T10:06:30.543Z,11.81
2022-10-02T10:09:35.670Z,11.79
2022-10-02T10:12:23.917Z,11.65
2022-10-02T10:15:36.443Z,11.61
2022-10-02T10:18:50.349Z,11.63
2022-10-02T10:21:55.050Z,11.70
2022-10-02T10:24:56.875Z,11.58
2022-10-02T10:27:57.390Z,11.52
2022-10-02T10:30:57.500Z,11.63
2022-10-02T10:33:56.622Z,11.64
2022-10-02T10:37:13.251Z,11.70
2022-10-02T10:40:27.487Z,11.75
2022-10-02T10:43:36.556Z,11.74
2022-10-02T10:46:23.982Z,11.80
2022-10-02T10:49:32.350Z,11.83
2022-10-02T10:52:11.692Z,11.90
2022-10-02T10:55:04.116Z,11.88
2022-10-02T10:57:51.500Z,11.82
2022-10-02T11:00:22.368Z,11.84
2022-10-02T11:03:09.764Z,11.90
2022-10-02T11:06:04.446Z,11.93
2022-10-02T11:09:16.733Z,11.95
2022-10-02T11:11:58.888Z,11.74
2022-10-02T11:14:41.763Z,11.85
2022-10-02T11:17:26.652Z,11.41
2022-10-02T11:20:11.783Z,11.84
2022-10-02T11:23:12.559Z,11.92
2022-10-02T11:26:16.800Z,11.85
2022-10-02T11:29:17.471Z,11.90
2022-10-02T11:32:12.685Z,11.83
2022-10-02T11:34:58.788Z,11.82
2022-10-02T11:37:48.255Z,11.64
2022-10-02T11:40:35.370Z,11.85
2022-10-02T11:43:25.860Z,11.83
2022-10-02T11:46:23.503Z,11.89
2022-10-02T11:49:26.911Z,11.75
2022-10-02T11:52:32.395Z,11.82
2022-10-02T11:55:10.033Z,11.89
2022-10-02T11:57:51.798Z,11.86
2022-10-02T12:00:55.805Z,11.93
2022-10-02T12:03:32.286Z,11.66
2022-10-02T12:06:08.342Z,12.00
2022-10-02T12:08:51.403Z,12.05
2022-10-02T12:11:32.626Z,12.02
2022-10-02T12:14:11.088Z,12.01
2022-10-02T12:16:53.848Z,12.05
2022-10-02T12:20:01.697Z,11.94
2022-10-02T12:22:57.727Z,12.11
2022-10-02T12:25:52.163Z,12.13
2022-10-02T12:28:28.177Z,12.18
2022-10-02T12:31:03.245Z,12.31
2022-10-02T12:33:44.220Z,12.31
2022-10-02T12:36:37.062Z,12.24
2022-10-02T12:39:18.813Z,12.29
2022-10-02T12:42:20.928Z,12.27
2022-10-02T12:45:22.976Z,12.27
2022-10-02T12:48:08.417Z,12.10
2022-10-02T12:51:06.101Z,12.30
2022-10-02T12:54:10.429Z,12.26
2022-10-02T12:57:38.941Z,12.26
2022-10-02T13:00:15.850Z,12.19
2022-10-02T13:03:17.436Z,12.09
2022-10-02T13:05:55.499Z,12.02
2022-10-02T13:08:32.514Z,12.06
2022-10-02T13:11:10.602Z,12.10
2022-10-02T13:13:56.683Z,11.84
2022-10-02T13:16:30.384Z,12.25
2022-10-02T13:19:02.800Z,12.22
2022-10-02T13:21:42.784Z,11.93
2022-10-02T13:24:25.525Z,12.29
2022-10-02T13:27:04.451Z,12.39
2022-10-02T13:30:02.711Z,12.46
2022-10-02T13:32:52.396Z,12.72
2022-10-02T13:35:46.061Z,12.75
2022-10-02T13:38:47.584Z,12.86
2022-10-02T13:41:28.404Z,12.72
2022-10-02T13:44:12.449Z,12.93
2022-10-02T13:46:50.050Z,12.95
2022-10-02T13:49:27.169Z,12.90
2022-10-02T13:52:04.007Z,12.92
2022-10-02T13:54:42.692Z,12.98
2022-10-02T13:57:23.490Z,13.01
2022-10-02T14:00:03.921Z,13.02
2022-10-02T14:02:48.860Z,13.07
2022-10-02T14:05:32.534Z,13.03
2022-10-02T14:08:19.261Z,13.01
2022-10-02T14:11:02.135Z,13.08
2022-10-02T14:13:43.563Z,13.09
2022-10-02T14:16:25.996Z,13.06
2022-10-02T14:19:13.394Z,12.69
2022-10-02T14:21:54.298Z,13.10
2022-10-02T14:25:04.396Z,13.11
2022-10-02T14:28:14.140Z,13.16
2022-10-02T14:31:06.339Z,13.17
2022-10-02T14:33:59.082Z,13.23
2022-10-02T14:36:32.267Z,13.02
2022-10-02T14:39:20.648Z,12.98
2022-10-02T14:42:09.982Z,13.04
2022-10-02T14:45:13.887Z,12.96
2022-10-02T14:48:05.469Z,12.82
2022-10-02T14:50:47.463Z,12.77
2022-10-02T14:53:31.335Z,12.73
2022-10-02T14:56:42.094Z,12.62
2022-10-02T14:59:24.343Z,12.49
2022-10-02T15:02:11.712Z,12.49
2022-10-02T15:04:52.972Z,12.49
2022-10-02T15:07:24.307Z,12.47
2022-10-02T15:10:08.751Z,12.49
2022-10-02T15:12:49.003Z,12.48
2022-10-02T15:15:22.506Z,12.44
2022-10-02T15:18:09.991Z,12.44
2022-10-02T15:20:48.972Z,12.17
2022-10-02T15:23:41.303Z,12.41
2022-10-02T15:26:32.479Z,12.41
2022-10-02T15:29:15.796Z,12.37
2022-10-02T15:32:06.965Z,12.22
2022-10-02T15:34:46.697Z,12.32
2022-10-02T15:37:25.238Z,12.25
2022-10-02T15:40:07.056Z,12.21
2022-10-02T15:42:50.098Z,12.13
2022-10-02T15:45:49.656Z,12.13
2022-10-02T15:48:36.361Z,12.07
2022-10-02T15:51:18.646Z,11.76
2022-10-02T15:54:03.778Z,12.00
2022-10-02T15:57:08.141Z,11.83
2022-10-02T15:59:59.788Z,11.74
2022-10-02T16:02:40.294Z,11.70
2022-10-02T16:05:29.574Z,11.65
2022-10-02T16:08:21.986Z,11.60
2022-10-02T16:11:10.574Z,11.56
2022-10-02T16:13:50.115Z,11.58
2022-10-02T16:16:34.597Z,11.46
2022-10-02T16:19:14.708Z,11.51
2022-10-02T16:22:02.100Z,11.46
2022-10-02T16:24:49.388Z,11.45
2022-10-02T16:27:32.956Z,11.41
2022-10-02T16:30:13.349Z,11.35
2022-10-02T16:33:00.874Z,11.29
2022-10-02T16:36:10.767Z,11.23
2022-10-02T16:38:49.091Z,10.89
2022-10-02T16:41:37.040Z,11.20
2022-10-02T16:44:24.703Z,11.13
2022-10-02T16:46:56.708Z,11.04
2022-10-02T16:49:35.011Z,11.02
2022-10-02T16:52:12.135Z,10.97
2022-10-02T16:54:48.190Z,10.54
2022-10-02T16:57:25.200Z,10.81
2022-10-02T17:00:01.998Z,10.79
2022-10-02T17:02:43.606Z,10.76
2022-10-02T17:05:26.150Z,10.77
2022-10-02T17:08:00.671Z,10.79
2022-10-02T17:10:42.695Z,10.67
2022-10-02T17:13:30.533Z,10.69
2022-10-02T17:16:07.652Z,10.64
2022-10-02T17:18:43.828Z,10.66
2022-10-02T17:21:18.768Z,10.61
2022-10-02T17:24:00.244Z,10.57
2022-10-02T17:26:35.115Z,10.61
2022-10-02T17:29:12.568Z,10.52
2022-10-02T17:31:51.998Z,10.55
2022-10-02T17:34:24.166Z,10.51
2022-10-02T17:37:27.690Z,10.54
2022-10-02T17:40:08.909Z,10.58
2022-10-02T17:42:52.079Z,10.54
2022-10-02T17:45:31.942Z,10.23
2022-10-02T17:48:22.915Z,10.54
2022-10-02T17:51:50.869Z,10.39
2022-10-02T17:54:42.604Z,10.49
2022-10-02T17:57:27.553Z,10.47
2022-10-02T18:00:05.801Z,10.44
2022-10-02T18:02:52.319Z,10.46
2022-10-02T18:05:31.233Z,10.43
2022-10-02T18:08:14.317Z,10.43
2022-10-02T18:10:55.751Z,10.41
2022-10-02T18:13:36.439Z,10.39
2022-10-02T18:16:27.875Z,10.38
2022-10-02T18:19:24.026Z,10.28
2022-10-02T18:22:16.033Z,10.16
2022-10-02T18:25:25.274Z,9.85
2022-10-02T18:28:27.105Z,10.31
2022-10-02T18:31:08.730Z,10.32
2022-10-02T18:34:03.151Z,10.30
2022-10-02T18:36:41.462Z,10.26
2022-10-02T18:39:20.390Z,10.33
2022-10-02T18:41:57.315Z,10.43
2022-10-02T18:44:53.421Z,10.46
2022-10-02T18:47:34.462Z,10.49
2022-10-02T18:50:22.904Z,10.54
2022-10-02T18:53:01.666Z,10.56
2022-10-02T18:55:44.051Z,10.63
2022-10-02T18:58:28.006Z,10.45
2022-10-02T19:01:23.064Z,10.19
2022-10-02T19:04:10.265Z,10.24
2022-10-02T19:06:50.131Z,10.25
2022-10-02T19:09:26.094Z,10.57
2022-10-02T19:12:01.294Z,10.57
2022-10-02T19:14:41.352Z,10.54
2022-10-02T19:17:15.767Z,10.55
2022-10-02T19:19:44.863Z,10.54
2022-10-02T19:22:19.860Z,10.30
2022-10-02T19:24:51.009Z,10.38
2022-10-02T19:27:25.533Z,10.60
2022-10-02T19:29:57.921Z,10.61
2022-10-02T19:32:30.438Z,10.44
2022-10-02T19:35:04.003Z,10.59
2022-10-02T19:37:33.859Z,10.44
2022-10-02T19:40:08.960Z,10.63
2022-10-02T19:42:56.199Z,10.64
2022-10-02T19:45:27.618Z,10.64
2022-10-02T19:47:59.912Z,10.63
2022-10-02T19:50:39.944Z,10.62
2022-10-02T19:53:17.954Z,10.62
2022-10-02T19:55:50.599Z,10.62
2022-10-02T19:58:22.134Z,10.63
2022-10-02T20:00:51.909Z,10.61
2022-10-02T20:03:23.151Z,10.64
2022-10-02T20:05:55.457Z,10.63
2022-10-02T20:08:27.240Z,10.61
2022-10-02T20:11:03.251Z,10.62
2022-10-02T20:13:37.517Z,10.63
2022-10-02T20:16:31.648Z,10.63
2022-10-02T20:19:02.323Z,10.59
2022-10-02T20:21:37.880Z,10.25
2022-10-02T20:24:11.804Z,10.54
2022-10-02T20:26:42.179Z,10.43
2022-10-02T20:29:17.582Z,10.45
2022-10-02T20:31:51.603Z,9.99
2022-10-02T20:34:29.124Z,10.37
2022-10-02T20:37:04.172Z,10.14
2022-10-02T20:39:38.208Z,10.27
2022-10-02T20:42:14.815Z,10.26
2022-10-02T20:44:43.459Z,10.20
2022-10-02T20:47:54.759Z,10.20
2022-10-02T20:50:52.211Z,10.16
2022-10-02T20:54:05.174Z,10.15
2022-10-02T20:57:14.437Z,10.09
2022-10-02T21:00:17.092Z,10.03
2022-10-02T21:03:26.641Z,9.97
2022-10-02T21:06:39.236Z,9.89
2022-10-02T21:09:44.934Z,9.91
2022-10-02T21:12:49.767Z,9.86
2022-10-02T21:15:53.917Z,9.84
2022-10-02T21:18:48.673Z,9.82
2022-10-02T21:21:37.655Z,9.79
2022-10-02T21:24:36.949Z,9.78
2022-10-02T21:27:36.539Z,9.78
2022-10-02T21:30:14.153Z,9.60
2022-10-02T21:32:56.774Z,9.73
2022-10-02T21:35:42.211Z,9.82
2022-10-02T21:38:46.474Z,9.82
2022-10-02T21:41:50.706Z,9.85
2022-10-02T21:44:52.202Z,9.87
2022-10-02T21:48:04.664Z,9.87
2022-10-02T21:51:27.136Z,9.86
2022-10-02T21:54:33.297Z,9.87
2022-10-02T21:57:38.687Z,9.87
2022-10-02T22:00:16.428Z,9.87
2022-10-02T22:03:18.255Z,9.92
2022-10-02T22:06:12.212Z,9.94
2022-10-02T22:09:04.247Z,9.91
2022-10-02T22:11:42.605Z,9.94
2022-10-02T22:14:14.715Z,9.93
2022-10-02T22:16:58.176Z,9.93
2022-10-02T22:19:44.231Z,9.85
2022-10-02T22:22:21.745Z,9.90
2022-10-02T22:25:12.075Z,9.71
2022-10-02T22:28:10.425Z,10.00
2022-10-02T22:30:45.661Z,9.97
2022-10-02T22:33:25.486Z,10.06
2022-10-02T22:36:16.507Z,9.92
2022-10-02T22:38:50.367Z,10.00
2022-10-02T22:41:27.659Z,9.96
2022-10-02T22:44:00.142Z,10.03
2022-10-02T22:46:44.278Z,9.99
2022-10-02T22:49:21.281Z,10.03
2022-10-02T22:52:00.395Z,9.98
2022-10-02T22:54:36.730Z,9.92
2022-10-02T22:57:15.560Z,10.03
2022-10-02T22:59:48.544Z,9.92
2022-10-02T23:02:24.534Z,9.89
2022-10-02T23:04:58.617Z,9.83
2022-10-02T23:07:32.866Z,9.59
2022-10-02T23:10:05.237Z,9.79
2022-10-02T23:12:41.970Z,9.73
2022-10-02T23:15:31.683Z,9.64
2022-10-02T23:18:05.265Z,9.28
2022-10-02T23:20:38.205Z,9.57
2022-10-02T23:23:17.112Z,9.56
2022-10-02T23:25:52.692Z,9.50
2022-10-02T23:28:26.706Z,9.01
2022-10-02T23:31:06.407Z,9.52
2022-10-02T23:33:48.389Z,9.18
2022-10-02T23:36:25.503Z,9.41
2022-10-02T23:39:04.314Z,9.43
2022-10-02T23:41:40.969Z,9.30
2022-10-02T23:44:22.048Z,9.41
2022-10-02T23:47:23.943Z,9.47
2022-10-02T23:49:54.888Z,9.52
2022-10-02T23:52:46.436Z,9.34
2022-10-02T23:55:35.391Z,9.44
2022-10-02T23:58:26.711Z,9.24
